Time;durP1;ratioP1;P1;durP2;ratioP2;P2;SDS_P1;SDS_P2;PMS_P1;PMS_P2;Temp;Humidity;BMP_temperature;BMP_pressure;BME280_temperature;BME280_humidity;BME280_pressure;Samples;Min_cycle;Max_cycle;Signal;HPM_P1;HPM_P2
2023/03/24 00:01:52;;;;;;;3.90;3.20;;;11.50;99.90;;;;;;5055523;28;20511;-65
2023/03/24 00:04:20;;;;;;;4.53;3.60;;;11.50;99.90;;;;;;5054788;28;20459;-66
2023/03/24 00:06:49;;;;;;;4.50;3.90;;;11.60;99.90;;;;;;5054506;28;20470;-66
2023/03/24 00:09:16;;;;;;;8.50;3.90;;;11.60;99.90;;;;;;5054854;28;20466;-67
2023/03/24 00:11:44;;;;;;;3.27;2.97;;;11.60;99.90;;;;;;5054892;28;21024;-67
2023/03/24 00:14:11;;;;;;;4.63;4.00;;;11.50;99.90;;;;;;5054358;28;20498;-67
2023/03/24 00:16:41;;;;;;;5.70;3.50;;;11.60;99.90;;;;;;5054778;28;20462;-66
2023/03/24 00:19:12;;;;;;;3.90;3.50;;;11.50;99.90;;;;;;5054687;28;20423;-67
2023/03/24 00:21:40;;;;;;;4.63;3.50;;;11.60;99.90;;;;;;5055118;28;20494;-67
2023/03/24 00:24:10;;;;;;;4.33;3.23;;;11.60;99.90;;;;;;5054690;28;20829;-68
2023/03/24 00:26:39;;;;;;;4.80;3.30;;;11.60;99.90;;;;;;5054314;28;20459;-68
2023/03/24 00:29:07;;;;;;;4.00;3.00;;;11.60;99.90;;;;;;5054453;28;21001;-67
2023/03/24 00:31:38;;;;;;;4.57;3.33;;;11.60;99.90;;;;;;5054804;28;20493;-67
2023/03/24 00:34:07;;;;;;;3.70;3.27;;;11.60;99.90;;;;;;5055004;28;20440;-67
2023/03/24 00:36:35;;;;;;;3.57;2.93;;;11.60;99.90;;;;;;5054843;28;20455;-68
2023/03/24 00:39:03;;;;;;;3.80;3.40;;;11.60;99.90;;;;;;5054708;28;20915;-67
2023/03/24 00:41:32;;;;;;;3.23;2.93;;;11.60;99.90;;;;;;5054544;28;20506;-67
2023/03/24 00:44:04;;;;;;;4.10;3.00;;;11.60;99.90;;;;;;5054908;28;20502;-67
2023/03/24 00:46:32;;;;;;;4.10;3.10;;;11.50;99.90;;;;;;5055473;28;20439;-68
2023/03/24 00:49:04;;;;;;;4.00;3.60;;;11.60;99.90;;;;;;5054700;28;20470;-68
2023/03/24 00:51:33;;;;;;;3.90;3.03;;;11.50;99.90;;;;;;5054587;28;20767;-68
2023/03/24 00:54:00;;;;;;;3.43;3.10;;;11.60;99.90;;;;;;5058015;28;20455;-66
2023/03/24 00:56:29;;;;;;;4.03;3.30;;;11.50;99.90;;;;;;5058252;28;20459;-67
2023/03/24 00:59:00;;;;;;;3.97;3.30;;;11.50;99.90;;;;;;5058288;28;20470;-67
2023/03/24 01:01:29;;;;;;;3.30;2.80;;;11.50;99.90;;;;;;5058058;28;20483;-67
2023/03/24 01:03:56;;;;;;;3.60;3.30;;;11.50;99.90;;;;;;5058476;28;20851;-67
2023/03/24 01:06:24;;;;;;;4.80;3.33;;;11.50;99.90;;;;;;5058589;28;20487;-68
2023/03/24 01:08:52;;;;;;;3.47;2.90;;;11.50;99.90;;;;;;5058412;28;20486;-67
2023/03/24 01:11:23;;;;;;;3.57;3.27;;;11.60;99.90;;;;;;5058514;28;20459;-67
2023/03/24 01:13:50;;;;;;;3.87;2.80;;;11.60;99.90;;;;;;5058367;28;20444;-67
2023/03/24 01:16:20;;;;;;;3.10;2.80;;;11.60;99.90;;;;;;5057602;28;20568;-67
2023/03/24 01:18:48;;;;;;;4.10;3.40;;;11.70;99.90;;;;;;5057812;28;20449;-67
2023/03/24 01:21:15;;;;;;;3.40;2.40;;;11.70;99.90;;;;;;5057567;28;20509;-67
2023/03/24 01:23:42;;;;;;;2.77;2.43;;;11.70;99.90;;;;;;5058342;28;20459;-67
2023/03/24 01:26:10;;;;;;;3.30;2.77;;;11.70;99.90;;;;;;5058097;28;20498;-67
2023/03/24 01:28:39;;;;;;;4.13;3.07;;;11.70;99.90;;;;;;5058464;28;20520;-67
2023/03/24 01:31:23;;;;;;;6.20;2.80;;;11.70;99.90;;;;;;5057647;28;20549;-67
2023/03/24 01:33:50;;;;;;;3.00;2.80;;;11.80;99.90;;;;;;5057961;28;20532;-67
2023/03/24 01:36:17;;;;;;;3.47;3.17;;;11.70;99.90;;;;;;5057389;28;20501;-67
2023/03/24 01:38:44;;;;;;;4.37;3.07;;;11.70;99.90;;;;;;5057837;28;20516;-67
2023/03/24 01:41:11;;;;;;;2.80;2.60;;;11.70;99.90;;;;;;5057273;28;20474;-68
2023/03/24 01:43:37;;;;;;;3.57;3.20;;;11.70;99.90;;;;;;5057600;28;20489;-68
2023/03/24 01:46:15;;;;;;;7.10;3.00;;;11.70;99.90;;;;;;5057485;28;20489;-67
2023/03/24 01:48:49;;;;;;;3.27;2.90;;;11.70;99.90;;;;;;5057393;28;20481;-67
2023/03/24 01:51:19;;;;;;;5.60;3.63;;;11.70;99.90;;;;;;5057591;28;20522;-67
2023/03/24 01:53:50;;;;;;;3.37;3.07;;;11.70;99.90;;;;;;5057896;28;20912;-67
2023/03/24 01:56:17;;;;;;;3.43;3.13;;;11.70;99.90;;;;;;5057147;28;20478;-67
2023/03/24 01:58:50;;;;;;;3.83;2.83;;;11.60;99.90;;;;;;5056963;28;20485;-68
2023/03/24 02:01:18;;;;;;;3.70;3.37;;;11.60;99.90;;;;;;5056955;28;20470;-67
2023/03/24 02:03:46;;;;;;;3.07;2.77;;;11.60;99.90;;;;;;5055735;28;20491;-68
2023/03/24 02:06:15;;;;;;;3.60;3.00;;;11.50;99.90;;;;;;5056716;28;20479;-66
2023/03/24 02:08:48;;;;;;;3.23;2.93;;;11.50;99.90;;;;;;5057226;28;20850;-68
2023/03/24 02:11:16;;;;;;;3.70;3.40;;;11.50;99.90;;;;;;5056736;28;20496;-67
2023/03/24 02:13:42;;;;;;;3.90;3.50;;;11.50;99.90;;;;;;5057016;28;20528;-68
2023/03/24 02:16:23;;;;;;;3.17;2.87;;;11.50;99.90;;;;;;5056785;28;20502;-67
2023/03/24 02:19:05;;;;;;;5.10;3.30;;;11.50;99.90;;;;;;5056557;28;20470;-67
2023/03/24 02:22:06;;;;;;;3.70;3.37;;;11.50;99.90;;;;;;5057163;28;20471;-68
2023/03/24 02:25:04;;;;;;;3.77;3.47;;;11.50;99.90;;;;;;5057005;28;20447;-67
2023/03/24 02:28:01;;;;;;;3.73;3.30;;;11.50;99.90;;;;;;5055606;28;20538;-68
2023/03/24 02:31:01;;;;;;;4.63;3.50;;;11.50;99.90;;;;;;5056365;28;20633;-68
2023/03/24 02:34:10;;;;;;;3.73;3.40;;;11.50;99.90;;;;;;5057003;28;20459;-67
2023/03/24 02:37:27;;;;;;;4.43;3.03;;;11.60;99.90;;;;;;4993551;28;20513;-67
2023/03/24 02:40:18;;;;;;;3.53;3.23;;;11.60;99.90;;;;;;5036523;28;20451;-67
2023/03/24 02:42:59;;;;;;;3.40;2.80;;;11.60;99.90;;;;;;5056465;28;20484;-67
2023/03/24 02:45:35;;;;;;;3.23;2.93;;;11.60;99.90;;;;;;5056687;28;20439;-67
2023/03/24 02:48:21;;;;;;;3.30;2.70;;;11.60;99.90;;;;;;5056334;28;20443;-67
2023/03/24 02:50:54;;;;;;;3.20;2.90;;;11.60;99.90;;;;;;5056354;28;20519;-67
2023/03/24 02:53:30;;;;;;;2.70;2.50;;;11.60;99.90;;;;;;5056091;28;20439;-67
2023/03/24 02:56:06;;;;;;;3.40;3.10;;;11.60;99.90;;;;;;5056253;28;20505;-67
2023/03/24 02:58:39;;;;;;;4.00;3.07;;;11.60;99.90;;;;;;5056706;28;20443;-67
2023/03/24 03:01:12;;;;;;;4.03;3.30;;;11.50;99.90;;;;;;5056157;28;20867;-67
2023/03/24 03:03:42;;;;;;;3.40;3.10;;;11.40;99.90;;;;;;5056687;28;20497;-67
2023/03/24 03:06:15;;;;;;;3.90;3.47;;;11.30;99.90;;;;;;5056997;28;20447;-68
2023/03/24 03:08:42;;;;;;;4.00;3.63;;;11.20;99.90;;;;;;5056758;28;20478;-68
2023/03/24 03:11:15;;;;;;;3.80;3.13;;;11.10;99.90;;;;;;5056711;28;20451;-68
2023/03/24 03:13:48;;;;;;;4.20;3.60;;;11.00;99.90;;;;;;5056338;28;20435;-68
2023/03/24 03:16:21;;;;;;;3.80;3.43;;;11.00;99.90;;;;;;5055643;28;20525;-67
2023/03/24 03:18:51;;;;;;;4.43;4.00;;;11.00;99.90;;;;;;5055899;28;20436;-67
2023/03/24 03:21:22;;;;;;;4.40;3.47;;;11.00;99.90;;;;;;5055742;28;20928;-68
2023/03/24 03:23:54;;;;;;;3.70;3.13;;;10.90;99.90;;;;;;5055974;28;20444;-67
2023/03/24 03:26:25;;;;;;;4.40;3.53;;;11.00;99.90;;;;;;5055717;28;20479;-68
2023/03/24 03:28:56;;;;;;;4.97;3.33;;;11.00;99.90;;;;;;5055786;28;20439;-66
2023/03/24 03:31:28;;;;;;;3.60;3.30;;;11.00;99.90;;;;;;5056252;28;20501;-68
2023/03/24 03:34:02;;;;;;;4.00;3.60;;;10.90;99.90;;;;;;5055818;28;20505;-67
2023/03/24 03:36:34;;;;;;;4.30;3.90;;;10.90;99.90;;;;;;5055960;28;20444;-67
2023/03/24 03:39:07;;;;;;;3.87;3.57;;;10.90;99.90;;;;;;5055603;28;20808;-67
2023/03/24 03:41:35;;;;;;;5.17;3.87;;;10.90;99.90;;;;;;5055359;28;20530;-68
2023/03/24 03:44:02;;;;;;;4.30;3.90;;;10.90;99.90;;;;;;5055840;28;20483;-68
2023/03/24 03:46:29;;;;;;;5.03;3.70;;;10.90;99.90;;;;;;5055498;28;20487;-67
2023/03/24 03:48:57;;;;;;;3.80;3.50;;;10.90;99.90;;;;;;5055405;28;20482;-68
2023/03/24 03:51:24;;;;;;;6.67;4.00;;;10.90;99.90;;;;;;5055220;28;20463;-67
2023/03/24 03:53:53;;;;;;;3.90;3.40;;;10.90;99.90;;;;;;5055583;28;20532;-68
2023/03/24 03:56:24;;;;;;;5.10;4.17;;;11.00;99.90;;;;;;5055442;28;20568;-67
2023/03/24 03:58:52;;;;;;;5.03;4.53;;;11.00;99.90;;;;;;5055304;28;20749;-67
2023/03/24 04:01:22;;;;;;;4.50;4.00;;;11.00;99.90;;;;;;5055324;28;20483;-67
2023/03/24 04:04:08;;;;;;;4.40;4.00;;;10.90;99.90;;;;;;5055203;28;20568;-66
2023/03/24 04:06:43;;;;;;;5.00;4.60;;;11.00;99.90;;;;;;5055226;28;20810;-68
2023/03/24 04:09:23;;;;;;;6.80;4.80;;;10.90;99.90;;;;;;5055193;28;20525;-66
2023/03/24 04:12:11;;;;;;;4.93;4.33;;;10.90;99.90;;;;;;5054669;28;20888;-67
2023/03/24 04:15:03;;;;;;;4.73;4.17;;;11.00;99.90;;;;;;5054505;28;20519;-67
2023/03/24 04:17:49;;;;;;;5.10;4.60;;;11.00;99.90;;;;;;5054464;28;20924;-67
2023/03/24 04:20:21;;;;;;;6.67;4.70;;;11.00;99.90;;;;;;5054704;28;20451;-67
2023/03/24 04:23:02;;;;;;;4.90;4.50;;;10.90;99.90;;;;;;5054730;28;20573;-67
2023/03/24 04:25:35;;;;;;;5.40;4.90;;;11.00;99.90;;;;;;5054516;28;20454;-68
2023/03/24 04:28:09;;;;;;;6.50;4.83;;;11.00;99.90;;;;;;5053832;28;20440;-66
2023/03/24 04:30:42;;;;;;;5.20;4.70;;;11.00;99.90;;;;;;5054813;28;20461;-67
2023/03/24 04:33:17;;;;;;;7.30;5.57;;;11.00;99.90;;;;;;5054855;28;20439;-67
2023/03/24 04:35:51;;;;;;;6.73;5.60;;;11.10;99.90;;;;;;5054566;28;20909;-67
2023/03/24 04:38:24;;;;;;;8.60;5.33;;;11.10;99.90;;;;;;5054841;28;20444;-67
2023/03/24 04:40:54;;;;;;;7.60;6.17;;;11.10;99.90;;;;;;5054267;28;20918;-68
2023/03/24 04:43:25;;;;;;;6.50;5.40;;;11.10;99.90;;;;;;5054891;28;20485;-68
2023/03/24 04:45:56;;;;;;;5.33;4.90;;;11.20;99.90;;;;;;5054701;28;20443;-68
2023/03/24 04:48:24;;;;;;;5.20;4.67;;;11.20;99.90;;;;;;5054578;28;20444;-68
2023/03/24 04:50:55;;;;;;;8.77;4.60;;;11.30;99.90;;;;;;5055210;28;20487;-67
2023/03/24 04:53:22;;;;;;;6.67;5.33;;;11.30;99.90;;;;;;5054564;28;20439;-68
2023/03/24 04:56:03;;;;;;;5.73;4.80;;;11.40;99.90;;;;;;5054247;28;20458;-67
2023/03/24 04:58:30;;;;;;;7.10;4.93;;;11.40;99.90;;;;;;5054671;28;20455;-68
2023/03/24 05:00:58;;;;;;;5.00;4.50;;;11.40;99.90;;;;;;5054571;28;20469;-67
2023/03/24 05:03:25;;;;;;;6.43;5.57;;;11.50;99.90;;;;;;5054053;28;20505;-67
2023/03/24 05:05:53;;;;;;;5.67;5.07;;;11.50;99.90;;;;;;5054349;28;20821;-67
2023/03/24 05:08:21;;;;;;;8.03;5.20;;;11.60;99.90;;;;;;5054511;28;20467;-68
2023/03/24 05:10:47;;;;;;;4.70;4.20;;;11.60;99.90;;;;;;5054380;28;20462;-68
2023/03/24 05:13:15;;;;;;;6.13;4.80;;;11.60;99.90;;;;;;5054570;28;20486;-68
2023/03/24 05:15:42;;;;;;;7.23;4.83;;;11.60;99.90;;;;;;5053958;28;20628;-68
2023/03/24 05:18:10;;;;;;;6.40;5.73;;;11.70;99.90;;;;;;5054225;28;20459;-68
2023/03/24 05:20:37;;;;;;;4.90;4.50;;;11.70;99.90;;;;;;5053991;28;20451;-69
2023/03/24 05:23:04;;;;;;;9.87;5.30;;;11.70;99.90;;;;;;5053986;28;20483;-69
2023/03/24 05:25:31;;;;;;;6.23;5.27;;;11.80;99.90;;;;;;5054428;28;20871;-67
2023/03/24 05:27:58;;;;;;;6.17;4.70;;;11.80;99.90;;;;;;5054145;28;20462;-68
2023/03/24 05:30:25;;;;;;;10.57;5.57;;;11.90;99.90;;;;;;5054092;28;20459;-68
2023/03/24 05:32:52;;;;;;;5.40;4.90;;;11.90;99.90;;;;;;5054032;28;20549;-67
2023/03/24 05:35:20;;;;;;;10.70;5.37;;;11.90;99.90;;;;;;5054629;28;20487;-68
2023/03/24 05:37:47;;;;;;;5.17;4.43;;;12.00;99.90;;;;;;5053832;28;20497;-68
2023/03/24 05:40:14;;;;;;;4.70;4.30;;;12.00;99.90;;;;;;5057705;28;20455;-69
2023/03/24 05:42:41;;;;;;;6.27;4.30;;;12.00;99.90;;;;;;5057535;28;20475;-68
2023/03/24 05:45:10;;;;;;;5.40;4.90;;;12.10;99.90;;;;;;5057395;28;20459;-67
2023/03/24 05:47:37;;;;;;;4.53;4.13;;;12.10;99.90;;;;;;5057536;28;20607;-67
2023/03/24 05:50:05;;;;;;;7.60;5.03;;;12.10;99.90;;;;;;5058041;28;20458;-68
2023/03/24 05:52:33;;;;;;;5.80;5.20;;;12.10;99.90;;;;;;5057558;28;20547;-69
2023/03/24 05:55:00;;;;;;;4.97;4.57;;;12.10;99.90;;;;;;5057776;28;20455;-68
2023/03/24 05:57:29;;;;;;;5.90;4.87;;;12.10;99.90;;;;;;5057621;28;20787;-67
2023/03/24 05:59:56;;;;;;;5.80;4.87;;;12.10;99.90;;;;;;5057458;28;20466;-68
2023/03/24 06:02:23;;;;;;;5.73;4.63;;;12.10;99.90;;;;;;5057389;28;20465;-69
2023/03/24 06:04:50;;;;;;;4.50;4.10;;;12.20;99.90;;;;;;5057365;28;20470;-68
2023/03/24 06:07:17;;;;;;;4.50;4.10;;;12.20;99.90;;;;;;5057418;28;20466;-68
2023/03/24 06:09:51;;;;;;;5.20;4.70;;;12.30;99.90;;;;;;5057749;28;20802;-69
2023/03/24 06:12:20;;;;;;;6.00;4.43;;;12.30;99.90;;;;;;5057577;28;20543;-68
2023/03/24 06:14:47;;;;;;;4.73;4.23;;;12.40;99.90;;;;;;5057236;28;20906;-67
2023/03/24 06:17:15;;;;;;;4.77;4.27;;;12.30;99.90;;;;;;5057376;28;20467;-68
2023/03/24 06:19:47;;;;;;;6.73;4.70;;;12.40;99.90;;;;;;5057314;28;20554;-68
2023/03/24 06:22:14;;;;;;;6.70;4.30;;;12.40;99.90;;;;;;5057139;28;20439;-68
2023/03/24 06:24:41;;;;;;;4.53;3.93;;;12.40;99.90;;;;;;5056974;28;21023;-68
2023/03/24 06:27:09;;;;;;;7.70;6.90;;;12.40;99.90;;;;;;5057085;28;20466;-67
2023/03/24 06:29:36;;;;;;;6.07;4.20;;;12.50;99.90;;;;;;5057164;28;20459;-68
2023/03/24 06:32:04;;;;;;;5.70;4.27;;;12.50;99.90;;;;;;5056897;28;20454;-68
2023/03/24 06:34:31;;;;;;;5.20;4.13;;;12.60;99.90;;;;;;5056486;28;20447;-67
2023/03/24 06:36:58;;;;;;;4.47;3.80;;;12.60;99.90;;;;;;5056754;28;20455;-67
2023/03/24 06:39:25;;;;;;;4.10;3.70;;;12.70;99.90;;;;;;5057101;28;20459;-68
2023/03/24 06:41:52;;;;;;;4.60;3.90;;;12.70;99.90;;;;;;5056955;28;20463;-68
2023/03/24 06:44:20;;;;;;;6.07;4.23;;;12.60;99.90;;;;;;5057756;28;20973;-68
2023/03/24 06:46:47;;;;;;;5.70;3.90;;;12.60;99.90;;;;;;5056540;28;20786;-68
2023/03/24 06:49:14;;;;;;;3.90;3.50;;;12.50;99.90;;;;;;5056169;28;20557;-68
2023/03/24 06:51:41;;;;;;;5.37;3.93;;;12.50;99.90;;;;;;5055614;28;20546;-68
2023/03/24 06:54:08;;;;;;;5.03;4.03;;;12.50;99.90;;;;;;5056495;28;20455;-68
2023/03/24 06:56:34;;;;;;;5.17;4.67;;;12.40;99.90;;;;;;5056556;28;20951;-69
2023/03/24 06:59:02;;;;;;;5.80;4.67;;;12.40;99.90;;;;;;5056574;28;20481;-68
2023/03/24 07:01:30;;;;;;;4.93;4.43;;;12.40;99.90;;;;;;5056459;28;20793;-68
2023/03/24 07:03:57;;;;;;;7.70;4.90;;;12.40;99.90;;;;;;5056211;28;20570;-68
2023/03/24 07:06:24;;;;;;;6.13;5.07;;;12.40;99.90;;;;;;5056408;28;20984;-67
2023/03/24 07:08:51;;;;;;;6.37;4.73;;;12.40;99.90;;;;;;5055798;28;20542;-68
2023/03/24 07:11:18;;;;;;;5.67;5.10;;;12.40;99.90;;;;;;5055914;28;20455;-67
2023/03/24 07:13:45;;;;;;;8.30;4.60;;;12.40;99.90;;;;;;5055855;28;20469;-69
2023/03/24 07:16:12;;;;;;;5.80;4.60;;;12.40;99.90;;;;;;5055435;28;20885;-68
2023/03/24 07:18:40;;;;;;;5.03;4.53;;;12.50;99.90;;;;;;5055732;28;20455;-68
2023/03/24 07:21:07;;;;;;;5.10;4.60;;;12.60;99.90;;;;;;5055734;28;20469;-67
2023/03/24 07:23:35;;;;;;;5.33;4.60;;;12.60;99.90;;;;;;5055589;28;20483;-67
2023/03/24 07:26:02;;;;;;;8.20;4.63;;;12.70;99.90;;;;;;5055560;28;20521;-71
2023/03/24 07:28:28;;;;;;;8.30;5.23;;;12.70;99.90;;;;;;5055295;28;20554;-67
2023/03/24 07:30:55;;;;;;;8.20;4.50;;;12.80;99.90;;;;;;5055196;28;20459;-68
2023/03/24 07:33:23;;;;;;;4.80;4.20;;;12.80;99.90;;;;;;5055410;28;20465;-67
2023/03/24 07:35:55;;;;;;;5.67;4.53;;;12.90;99.90;;;;;;5055468;28;20533;-67
2023/03/24 07:38:22;;;;;;;4.20;3.80;;;13.00;99.90;;;;;;5055572;28;20444;-68
2023/03/24 07:40:49;;;;;;;5.33;3.70;;;13.20;99.90;;;;;;5055011;28;20465;-68
2023/03/24 07:43:16;;;;;;;4.43;4.03;;;13.20;99.90;;;;;;5055220;28;20479;-68
2023/03/24 07:45:45;;;;;;;5.77;4.50;;;13.30;99.90;;;;;;5055309;28;20459;-68
2023/03/24 07:48:11;;;;;;;4.30;3.90;;;13.40;99.90;;;;;;5054994;28;20950;-68
2023/03/24 07:50:38;;;;;;;4.47;4.07;;;13.40;99.90;;;;;;5054878;28;20471;-68
2023/03/24 07:53:08;;;;;;;4.43;4.03;;;13.50;99.90;;;;;;5055244;28;20455;-68
2023/03/24 07:55:35;;;;;;;4.47;3.73;;;13.50;99.90;;;;;;5055390;28;20470;-68
2023/03/24 07:58:02;;;;;;;4.40;3.93;;;13.50;99.90;;;;;;5055185;28;20458;-67
2023/03/24 08:00:31;;;;;;;6.20;3.67;;;13.50;99.90;;;;;;5055460;28;20466;-69
2023/03/24 08:02:58;;;;;;;4.57;4.17;;;13.30;99.90;;;;;;5054377;28;20455;-67
2023/03/24 08:05:28;;;;;;;4.40;4.00;;;13.20;99.90;;;;;;5054978;28;20469;-67
2023/03/24 08:07:56;;;;;;;4.13;3.70;;;13.10;99.90;;;;;;5055247;28;20463;-67
2023/03/24 08:10:27;;;;;;;5.20;4.47;;;13.00;99.90;;;;;;5055055;28;20565;-67
2023/03/24 08:12:54;;;;;;;5.40;4.50;;;12.90;99.90;;;;;;5055460;28;20443;-68
2023/03/24 08:15:22;;;;;;;6.40;4.33;;;12.80;99.90;;;;;;5054799;28;20867;-67
2023/03/24 08:17:49;;;;;;;5.40;4.47;;;12.80;99.90;;;;;;5054747;28;20938;-66
2023/03/24 08:20:18;;;;;;;4.70;4.17;;;12.80;99.90;;;;;;5054427;28;20455;-66
2023/03/24 08:22:48;;;;;;;5.80;4.83;;;12.70;99.90;;;;;;5054821;28;20463;-66
2023/03/24 08:25:16;;;;;;;6.00;4.80;;;12.70;99.90;;;;;;5055153;28;20453;-67
2023/03/24 08:27:46;;;;;;;5.50;4.50;;;12.70;99.90;;;;;;5055294;28;20451;-67
2023/03/24 08:30:15;;;;;;;6.10;4.40;;;12.70;99.90;;;;;;5054463;28;20455;-67
2023/03/24 08:32:44;;;;;;;6.10;4.40;;;12.70;99.90;;;;;;5054591;28;20784;-67
2023/03/24 08:35:13;;;;;;;4.83;4.40;;;12.70;99.90;;;;;;5054696;28;20748;-67
2023/03/24 08:37:41;;;;;;;6.33;5.07;;;12.70;99.90;;;;;;5054317;28;21006;-67
2023/03/24 08:40:12;;;;;;;6.27;4.53;;;12.70;99.90;;;;;;5054657;28;20568;-67
2023/03/24 08:42:39;;;;;;;5.00;4.50;;;12.80;99.90;;;;;;5054526;28;20443;-66
2023/03/24 08:45:09;;;;;;;4.70;4.20;;;12.80;99.90;;;;;;5054145;28;20505;-66
2023/03/24 08:47:36;;;;;;;5.50;4.33;;;12.80;99.90;;;;;;5054506;28;20455;-67
2023/03/24 08:50:03;;;;;;;5.10;4.60;;;12.80;99.90;;;;;;5054582;28;20465;-68
2023/03/24 08:52:30;;;;;;;5.60;4.30;;;12.80;99.90;;;;;;5054479;28;20764;-67
2023/03/24 08:54:57;;;;;;;5.20;4.40;;;12.90;99.90;;;;;;5054448;28;20524;-68
2023/03/24 08:57:24;;;;;;;8.57;4.90;;;13.00;99.90;;;;;;5054160;28;20454;-67
2023/03/24 08:59:51;;;;;;;6.30;4.60;;;13.00;99.90;;;;;;5054300;28;20768;-69
2023/03/24 09:02:19;;;;;;;6.10;5.43;;;13.10;99.90;;;;;;5054767;28;20455;-68
2023/03/24 09:04:46;;;;;;;4.80;4.33;;;13.10;99.90;;;;;;5054211;28;20964;-67
2023/03/24 09:07:13;;;;;;;6.60;4.30;;;13.20;99.90;;;;;;5054525;28;20772;-68
2023/03/24 09:09:40;;;;;;;4.50;3.97;;;13.20;99.90;;;;;;5054272;28;20465;-67
2023/03/24 09:12:08;;;;;;;4.90;4.37;;;13.30;99.90;;;;;;5054367;28;20628;-67
2023/03/24 09:14:35;;;;;;;5.03;4.50;;;13.30;99.90;;;;;;5057092;28;20888;-67
2023/03/24 09:17:02;;;;;;;4.93;4.03;;;13.40;99.90;;;;;;5058166;28;20535;-68
2023/03/24 09:19:30;;;;;;;4.40;4.00;;;13.40;99.90;;;;;;5059074;28;20828;-68
2023/03/24 09:21:57;;;;;;;4.80;4.40;;;13.50;99.90;;;;;;5058390;28;20489;-66
2023/03/24 09:24:24;;;;;;;5.80;4.33;;;13.50;99.90;;;;;;5058483;28;20641;-65
2023/03/24 09:26:51;;;;;;;4.30;3.90;;;13.50;99.90;;;;;;5058298;28;20455;-67
2023/03/24 09:29:18;;;;;;;4.17;3.70;;;13.50;99.90;;;;;;5058166;28;20934;-67
2023/03/24 09:31:45;;;;;;;5.90;4.50;;;13.60;99.90;;;;;;5057880;28;20454;-68
2023/03/24 09:34:12;;;;;;;5.80;3.90;;;13.70;99.90;;;;;;5057752;28;20462;-68
2023/03/24 09:36:40;;;;;;;5.60;4.27;;;13.80;99.90;;;;;;5057912;28;20861;-68
2023/03/24 09:39:07;;;;;;;5.00;4.50;;;13.90;99.90;;;;;;5057594;28;20473;-68
2023/03/24 09:41:34;;;;;;;5.37;4.27;;;13.90;99.90;;;;;;5057681;28;20520;-68
2023/03/24 09:44:04;;;;;;;8.07;3.57;;;14.00;99.90;;;;;;5057733;28;20478;-70
2023/03/24 09:46:35;;;;;;;4.30;3.43;;;14.10;99.90;;;;;;5057684;28;20470;-66
2023/03/24 09:49:03;;;;;;;4.30;3.60;;;14.30;99.90;;;;;;5057762;28;20453;-68
2023/03/24 09:51:34;;;;;;;7.90;4.13;;;14.50;99.90;;;;;;5057546;28;20477;-68
2023/03/24 09:54:11;;;;;;;8.30;7.20;;;14.60;99.90;;;;;;5057519;28;20450;-67
2023/03/24 09:56:40;;;;;;;6.77;4.57;;;14.60;99.90;;;;;;5057419;28;20443;-68
2023/03/24 09:59:15;;;;;;;4.63;4.23;;;14.80;99.90;;;;;;5057321;28;20498;-67
2023/03/24 10:01:42;;;;;;;5.60;3.63;;;14.80;99.90;;;;;;5057407;28;20442;-68
2023/03/24 10:04:15;;;;;;;4.20;3.80;;;14.90;99.90;;;;;;5056983;28;20536;-67
2023/03/24 10:06:42;;;;;;;4.50;3.73;;;15.00;99.90;;;;;;5056956;28;20443;-69
2023/03/24 10:09:20;;;;;;;5.13;4.00;;;14.90;99.90;;;;;;5057135;28;20546;-68
2023/03/24 10:11:57;;;;;;;3.53;3.23;;;15.00;99.90;;;;;;5056965;28;20455;-67
2023/03/24 10:14:39;;;;;;;5.23;3.80;;;15.10;99.90;;;;;;5057076;28;20449;-69
2023/03/24 10:17:14;;;;;;;4.13;3.57;;;15.10;99.90;;;;;;5057693;28;20454;-67
2023/03/24 10:19:47;;;;;;;3.70;2.83;;;15.00;99.90;;;;;;5057562;28;20435;-68
2023/03/24 10:22:22;;;;;;;3.37;2.90;;;15.00;99.90;;;;;;5057804;28;20454;-68
2023/03/24 10:24:58;;;;;;;5.23;3.20;;;15.10;99.90;;;;;;5056893;28;20566;-68
2023/03/24 10:27:30;;;;;;;5.60;2.80;;;15.20;99.90;;;;;;5057937;28;20967;-67
2023/03/24 10:30:04;;;;;;;3.67;3.13;;;15.40;99.90;;;;;;5058091;28;20534;-68
2023/03/24 10:32:34;;;;;;;4.00;2.97;;;15.40;99.90;;;;;;5057867;28;20439;-68
2023/03/24 10:35:08;;;;;;;2.87;2.67;;;15.40;99.90;;;;;;5057866;28;20524;-68
2023/03/24 10:37:36;;;;;;;3.13;2.83;;;15.50;99.90;;;;;;5056947;28;20439;-67
2023/03/24 10:40:16;;;;;;;3.60;2.60;;;15.60;99.90;;;;;;5056785;28;20459;-67
2023/03/24 10:42:44;;;;;;;3.00;2.67;;;15.80;99.90;;;;;;5056609;28;20531;-68
2023/03/24 10:45:13;;;;;;;3.10;2.80;;;16.00;99.90;;;;;;5056744;28;20537;-68
2023/03/24 10:47:41;;;;;;;4.20;3.10;;;16.10;99.90;;;;;;5057151;28;20546;-67
2023/03/24 10:50:11;;;;;;;3.23;2.93;;;16.20;99.90;;;;;;5057504;28;20455;-67
2023/03/24 10:52:44;;;;;;;2.80;2.53;;;16.20;99.90;;;;;;5057262;28;20487;-68
2023/03/24 10:55:17;;;;;;;3.20;2.90;;;16.20;99.90;;;;;;5056543;28;20439;-68
2023/03/24 10:57:46;;;;;;;3.30;3.00;;;16.10;99.90;;;;;;5056551;28;20458;-68
2023/03/24 11:00:22;;;;;;;3.30;2.97;;;16.00;99.90;;;;;;5056447;28;20760;-67
2023/03/24 11:02:57;;;;;;;3.10;2.73;;;15.80;99.90;;;;;;5055923;28;20443;-69
2023/03/24 11:05:29;;;;;;;3.70;3.27;;;15.90;99.90;;;;;;5055892;28;20462;-67
2023/03/24 11:08:10;;;;;;;4.43;2.83;;;15.80;99.90;;;;;;5055983;28;20439;-69
2023/03/24 11:10:38;;;;;;;3.37;3.00;;;15.90;99.90;;;;;;5055893;28;20453;-68
2023/03/24 11:13:06;;;;;;;4.20;3.47;;;15.90;99.90;;;;;;5055856;28;20486;-68
2023/03/24 11:15:36;;;;;;;3.87;3.10;;;15.90;99.90;;;;;;5055465;28;20515;-69
2023/03/24 11:18:15;;;;;;;6.33;3.07;;;15.90;99.90;;;;;;5055410;28;20459;-68
2023/03/24 11:20:45;;;;;;;4.70;3.47;;;15.80;99.90;;;;;;5055659;28;20819;-69
2023/03/24 11:23:18;;;;;;;4.37;3.40;;;15.90;99.90;;;;;;5055470;28;20950;-68
2023/03/24 11:25:53;;;;;;;3.77;3.37;;;15.90;99.90;;;;;;5055470;28;20464;-68
2023/03/24 11:28:25;;;;;;;3.37;3.07;;;15.90;99.90;;;;;;5055774;28;20913;-69
2023/03/24 11:30:53;;;;;;;3.30;3.00;;;16.00;99.90;;;;;;5055461;28;20474;-68
2023/03/24 11:33:24;;;;;;;5.33;3.20;;;16.30;99.90;;;;;;5055961;28;20455;-68
2023/03/24 11:35:51;;;;;;;4.80;3.00;;;16.50;99.90;;;;;;5055270;28;20443;-68
2023/03/24 11:38:19;;;;;;;3.80;3.30;;;16.70;99.90;;;;;;5055704;28;20542;-68
2023/03/24 11:40:58;;;;;;;3.70;3.40;;;16.80;99.90;;;;;;5055815;28;20545;-68
2023/03/24 11:43:26;;;;;;;4.77;3.23;;;16.80;99.90;;;;;;5055951;28;20576;-67
2023/03/24 11:45:59;;;;;;;4.47;4.00;;;16.80;99.90;;;;;;5055478;28;20487;-68
2023/03/24 11:48:31;;;;;;;4.00;3.20;;;16.80;99.90;;;;;;5055217;28;20497;-69
2023/03/24 11:50:59;;;;;;;4.03;3.33;;;16.70;99.90;;;;;;5055346;28;20558;-66
2023/03/24 11:53:31;;;;;;;4.20;2.80;;;16.70;99.90;;;;;;5056058;28;20454;-67
2023/03/24 11:56:06;;;;;;;3.30;3.00;;;16.60;99.90;;;;;;5055338;28;20534;-68
2023/03/24 11:58:39;;;;;;;6.20;3.43;;;16.80;99.90;;;;;;5056134;28;20467;-68
2023/03/24 12:01:11;;;;;;;3.20;2.90;;;16.80;99.90;;;;;;5056049;28;20478;-67
2023/03/24 12:04:05;;;;;;;3.73;3.43;;;16.60;99.90;;;;;;5055624;28;20527;-67
2023/03/24 12:06:44;;;;;;;5.10;3.00;;;16.40;99.90;;;;;;5055868;28;20443;-67
2023/03/24 12:09:22;;;;;;;5.67;3.40;;;16.50;99.90;;;;;;5056057;28;20538;-67
2023/03/24 12:12:12;;;;;;;5.40;3.70;;;16.50;99.90;;;;;;5055670;28;20533;-70
2023/03/24 12:14:48;;;;;;;2.90;2.60;;;16.70;99.90;;;;;;5055332;28;20529;-67
2023/03/24 12:17:17;;;;;;;3.00;2.80;;;16.80;99.90;;;;;;5055246;28;20538;-67
2023/03/24 12:19:57;;;;;;;3.40;2.77;;;16.80;99.90;;;;;;5054999;28;20512;-67
2023/03/24 12:22:47;;;;;;;3.63;3.33;;;16.80;99.90;;;;;;5054710;28;20454;-68
2023/03/24 12:25:39;;;;;;;3.43;3.10;;;16.40;99.90;;;;;;5054472;28;20554;-68
2023/03/24 12:28:22;;;;;;;7.70;2.97;;;16.40;99.90;;;;;;5054895;28;20522;-67
2023/03/24 12:31:02;;;;;;;3.20;2.97;;;16.30;99.90;;;;;;5055142;28;20836;-68
2023/03/24 12:33:43;;;;;;;4.40;2.80;;;16.10;99.90;;;;;;5054797;28;20898;-67
2023/03/24 12:36:30;;;;;;;3.30;2.90;;;16.00;99.90;;;;;;5054802;28;20788;-67
2023/03/24 12:39:05;;;;;;;3.53;3.10;;;15.90;99.90;;;;;;5054924;28;20471;-68
2023/03/24 12:41:49;;;;;;;2.87;2.50;;;15.80;99.90;;;;;;5054898;28;20528;-67
2023/03/24 12:44:33;;;;;;;3.77;2.77;;;15.90;99.90;;;;;;5055246;28;20525;-66
2023/03/24 12:47:09;;;;;;;2.70;2.50;;;15.90;99.90;;;;;;5054331;28;20530;-68
2023/03/24 12:49:48;;;;;;;2.87;2.67;;;15.90;99.90;;;;;;5060728;28;20525;-68
2023/03/24 12:52:44;;;;;;;2.43;2.23;;;15.80;99.90;;;;;;5061069;28;20465;-67
2023/03/24 12:55:17;;;;;;;5.50;2.77;;;15.90;99.90;;;;;;5054217;28;20455;-67
2023/03/24 12:57:49;;;;;;;2.90;2.13;;;15.90;99.90;;;;;;5060927;28;20447;-67
2023/03/24 13:00:22;;;;;;;2.60;2.07;;;16.00;99.90;;;;;;5061251;28;20787;-68
2023/03/24 13:02:54;;;;;;;2.87;2.10;;;15.90;99.90;;;;;;5060689;28;20443;-67
2023/03/24 13:05:26;;;;;;;3.73;2.03;;;15.80;99.90;;;;;;5061653;28;20946;-68
2023/03/24 13:08:01;;;;;;;4.60;2.50;;;15.70;99.90;;;;;;5060948;28;20542;-68
2023/03/24 13:10:29;;;;;;;2.63;2.40;;;15.70;99.90;;;;;;5060709;28;20438;-67